createdAt,value
2023-08-20T00:00:22.318Z,17.13
2023-08-20T00:02:52.561Z,17.07
2023-08-20T00:05:19.558Z,16.99
2023-08-20T00:07:46.108Z,16.97
2023-08-20T00:10:12.680Z,16.90
2023-08-20T00:12:39.200Z,16.79
2023-08-20T00:15:06.979Z,16.72
2023-08-20T00:17:34.842Z,16.72
2023-08-20T00:20:02.443Z,16.64
2023-08-20T00:22:29.209Z,16.59
2023-08-20T00:24:56.276Z,16.53
2023-08-20T00:27:23.044Z,16.52
2023-08-20T00:29:49.642Z,16.44
2023-08-20T00:32:16.639Z,16.42
2023-08-20T00:34:43.341Z,16.38
2023-08-20T00:37:09.875Z,16.36
2023-08-20T00:39:36.436Z,16.32
2023-08-20T00:42:03.557Z,16.40
2023-08-20T00:44:30.087Z,16.42
2023-08-20T00:46:56.901Z,16.45
2023-08-20T00:49:23.985Z,16.49
2023-08-20T00:51:51.827Z,16.53
2023-08-20T00:54:18.833Z,16.57
2023-08-20T00:56:46.018Z,16.64
2023-08-20T00:59:12.728Z,16.68
2023-08-20T01:01:39.295Z,16.70
2023-08-20T01:04:06.137Z,16.77
2023-08-20T01:06:56.446Z,16.81
2023-08-20T01:09:44.404Z,16.77
2023-08-20T01:12:11.315Z,16.74
2023-08-20T01:14:37.848Z,16.72
2023-08-20T01:17:04.444Z,16.71
2023-08-20T01:19:30.989Z,16.62
2023-08-20T01:22:16.453Z,16.58
2023-08-20T01:25:11.004Z,16.56
2023-08-20T01:27:51.370Z,16.54
2023-08-20T01:30:20.912Z,16.57
2023-08-20T01:32:49.456Z,16.57
2023-08-20T01:35:17.901Z,16.62
2023-08-20T01:37:45.024Z,16.67
2023-08-20T01:40:12.215Z,16.69
2023-08-20T01:42:39.432Z,16.67
2023-08-20T01:45:07.204Z,16.64
2023-08-20T01:47:34.824Z,16.62
2023-08-20T01:50:03.249Z,16.60
2023-08-20T01:52:31.735Z,16.55
2023-08-20T01:54:59.066Z,16.51
2023-08-20T01:57:25.569Z,16.45
2023-08-20T01:59:52.124Z,16.41
2023-08-20T02:02:18.647Z,16.39
2023-08-20T02:04:45.436Z,16.38
2023-08-20T02:07:11.989Z,16.36
2023-08-20T02:09:38.480Z,16.35
2023-08-20T02:12:05.460Z,16.36
2023-08-20T02:14:35.670Z,16.38
2023-08-20T02:17:03.751Z,16.41
2023-08-20T02:19:30.343Z,16.40
2023-08-20T02:21:56.937Z,16.36
2023-08-20T02:24:23.466Z,16.31
2023-08-20T02:26:50.124Z,16.29
2023-08-20T02:29:16.670Z,16.21
2023-08-20T02:31:43.260Z,16.15
2023-08-20T02:34:09.856Z,16.09
2023-08-20T02:36:36.365Z,16.06
2023-08-20T02:39:04.943Z,15.99
2023-08-20T02:41:31.453Z,15.90
2023-08-20T02:43:57.963Z,15.87
2023-08-20T02:46:24.620Z,15.86
2023-08-20T02:48:51.247Z,15.84
2023-08-20T02:51:17.783Z,15.81
2023-08-20T02:53:44.496Z,15.76
2023-08-20T02:56:11.318Z,15.71
2023-08-20T02:58:37.879Z,15.64
2023-08-20T03:01:04.582Z,15.58
2023-08-20T03:03:31.089Z,15.56
2023-08-20T03:05:57.721Z,15.53
2023-08-20T03:08:24.593Z,15.49
2023-08-20T03:10:51.210Z,15.46
2023-08-20T03:13:17.713Z,15.40
2023-08-20T03:15:44.287Z,15.38
2023-08-20T03:18:11.045Z,15.41
2023-08-20T03:20:37.595Z,15.36
2023-08-20T03:23:04.317Z,15.30
2023-08-20T03:25:30.834Z,15.24
2023-08-20T03:27:57.475Z,15.26
2023-08-20T03:30:24.113Z,15.28
2023-08-20T03:32:50.703Z,15.29
2023-08-20T03:35:17.258Z,15.25
2023-08-20T03:37:43.858Z,15.17
2023-08-20T03:40:11.000Z,15.14
2023-08-20T03:42:37.595Z,15.12
2023-08-20T03:45:05.237Z,15.12
2023-08-20T03:47:31.777Z,15.23
2023-08-20T03:49:58.319Z,15.23
2023-08-20T03:52:24.934Z,15.22
2023-08-20T03:54:51.873Z,15.25
2023-08-20T03:57:18.523Z,15.25
2023-08-20T03:59:46.450Z,15.18
2023-08-20T04:02:13.012Z,15.16
2023-08-20T04:04:39.688Z,15.12
2023-08-20T04:07:06.236Z,15.11
2023-08-20T04:09:34.786Z,15.13
2023-08-20T04:12:01.285Z,15.14
2023-08-20T04:14:27.905Z,15.16
2023-08-20T04:16:54.367Z,15.14
2023-08-20T04:19:21.031Z,15.14
2023-08-20T04:21:47.680Z,15.12
2023-08-20T04:24:14.221Z,15.10
2023-08-20T04:26:40.781Z,15.10
2023-08-20T04:29:07.556Z,15.12
2023-08-20T04:31:34.123Z,15.13
2023-08-20T04:34:00.700Z,15.10
2023-08-20T04:36:27.249Z,15.10
2023-08-20T04:38:53.812Z,15.08
2023-08-20T04:41:20.485Z,15.12
2023-08-20T04:43:46.998Z,15.17
2023-08-20T04:46:13.715Z,15.16
2023-08-20T04:48:40.258Z,15.15
2023-08-20T04:51:07.870Z,15.15
2023-08-20T04:53:34.382Z,15.11
2023-08-20T04:56:00.902Z,15.13
2023-08-20T04:58:27.433Z,15.15
2023-08-20T05:00:54.226Z,15.11
2023-08-20T05:03:20.988Z,15.15
2023-08-20T05:05:51.771Z,15.11
2023-08-20T05:08:18.545Z,15.08
2023-08-20T05:10:45.067Z,15.14
2023-08-20T05:13:11.975Z,15.16
2023-08-20T05:15:38.543Z,15.15
2023-08-20T05:18:05.269Z,15.18
2023-08-20T05:20:31.828Z,15.13
2023-08-20T05:22:58.350Z,15.11
2023-08-20T05:25:25.066Z,15.11
2023-08-20T05:27:51.602Z,15.12
2023-08-20T05:30:18.248Z,15.11
2023-08-20T05:32:45.312Z,15.08
2023-08-20T05:35:11.802Z,15.11
2023-08-20T05:37:38.594Z,15.13
2023-08-20T05:40:05.710Z,15.12
2023-08-20T05:42:32.237Z,15.13
2023-08-20T05:44:58.800Z,15.13
2023-08-20T05:47:25.380Z,15.16
2023-08-20T05:49:51.883Z,15.20
2023-08-20T05:52:18.458Z,15.23
2023-08-20T05:54:45.002Z,15.29
2023-08-20T05:57:11.543Z,15.34
2023-08-20T05:59:38.085Z,15.40
2023-08-20T06:02:04.800Z,15.45
2023-08-20T06:04:31.882Z,15.48
2023-08-20T06:06:58.471Z,15.53
2023-08-20T06:09:25.032Z,15.56
2023-08-20T06:11:52.584Z,15.65
2023-08-20T06:14:19.175Z,15.71
2023-08-20T06:16:45.862Z,15.79
2023-08-20T06:19:15.210Z,15.85
2023-08-20T06:21:41.805Z,15.87
2023-08-20T06:24:08.651Z,15.93
2023-08-20T06:26:35.159Z,15.97
2023-08-20T06:29:01.698Z,16.05
2023-08-20T06:31:28.369Z,16.07
2023-08-20T06:33:55.013Z,16.17
2023-08-20T06:36:21.527Z,16.24
2023-08-20T06:38:48.162Z,16.36
2023-08-20T06:41:14.722Z,16.40
2023-08-20T06:43:41.256Z,16.43
2023-08-20T06:46:08.026Z,16.59
2023-08-20T06:48:34.787Z,16.71
2023-08-20T06:51:10.178Z,16.72
2023-08-20T06:53:36.669Z,16.85
2023-08-20T06:56:03.619Z,16.94
2023-08-20T06:58:30.885Z,16.95
2023-08-20T07:00:57.429Z,16.98
2023-08-20T07:03:23.958Z,17.06
2023-08-20T07:05:50.556Z,17.09
2023-08-20T07:08:17.086Z,17.17
2023-08-20T07:10:43.609Z,17.21
2023-08-20T07:13:10.137Z,17.28
2023-08-20T07:15:36.645Z,17.42
2023-08-20T07:18:03.312Z,17.45
2023-08-20T07:20:30.065Z,17.59
2023-08-20T07:22:57.845Z,17.71
2023-08-20T07:25:25.075Z,17.82
2023-08-20T07:27:52.096Z,17.93
2023-08-20T07:30:19.000Z,17.98
2023-08-20T07:32:45.514Z,18.04
2023-08-20T07:35:12.337Z,18.09
2023-08-20T07:37:39.005Z,18.18
2023-08-20T07:40:06.329Z,18.23
2023-08-20T07:42:32.967Z,18.24
2023-08-20T07:44:59.546Z,18.34
2023-08-20T07:47:26.100Z,18.42
2023-08-20T07:49:52.636Z,18.50
2023-08-20T07:52:19.118Z,18.51
2023-08-20T07:54:45.852Z,18.63
2023-08-20T07:57:12.406Z,18.71
2023-08-20T07:59:39.352Z,18.81
2023-08-20T08:02:06.509Z,18.86
2023-08-20T08:04:33.058Z,18.95
2023-08-20T08:06:59.518Z,19.00
2023-08-20T08:09:32.354Z,19.03
2023-08-20T08:11:59.978Z,19.13
2023-08-20T08:14:27.014Z,19.24
2023-08-20T08:16:53.813Z,19.43
2023-08-20T08:19:21.208Z,19.81
2023-08-20T08:21:48.460Z,22.24
2023-08-20T08:24:15.602Z,25.03
2023-08-20T08:26:43.004Z,26.23
2023-08-20T08:29:10.638Z,26.96
2023-08-20T08:31:37.244Z,27.26
2023-08-20T08:34:06.701Z,28.23
2023-08-20T08:36:33.257Z,28.55
2023-08-20T08:38:59.836Z,29.44
2023-08-20T08:41:27.177Z,28.85
2023-08-20T08:43:56.328Z,29.47
2023-08-20T08:46:25.313Z,30.45
2023-08-20T08:48:53.255Z,29.22
2023-08-20T08:51:20.017Z,30.29
2023-08-20T08:53:47.880Z,30.41
2023-08-20T08:56:14.481Z,30.91
2023-08-20T08:58:41.353Z,31.61
2023-08-20T09:01:08.259Z,30.67
2023-08-20T09:03:34.956Z,30.38
2023-08-20T09:06:04.305Z,31.19
2023-08-20T09:08:32.387Z,31.90
2023-08-20T09:10:59.752Z,32.12
2023-08-20T09:13:37.186Z,30.65
2023-08-20T09:16:11.717Z,31.38
2023-08-20T09:18:47.725Z,32.40
2023-08-20T09:21:14.946Z,32.58
2023-08-20T09:23:41.566Z,31.83
2023-08-20T09:26:09.183Z,32.60
2023-08-20T09:28:46.811Z,32.46
2023-08-20T09:31:15.192Z,31.81
2023-08-20T09:33:55.247Z,31.09
2023-08-20T09:36:32.319Z,30.53
2023-08-20T09:38:58.831Z,29.83
2023-08-20T09:41:26.517Z,29.47
2023-08-20T09:44:05.486Z,30.79
2023-08-20T09:46:33.966Z,29.66
2023-08-20T09:49:00.957Z,29.18
2023-08-20T09:51:29.767Z,29.21
2023-08-20T09:54:22.659Z,28.04
2023-08-20T09:56:59.818Z,28.13
2023-08-20T09:59:27.869Z,27.57
2023-08-20T10:01:55.676Z,27.35
2023-08-20T10:04:22.482Z,27.46
2023-08-20T10:06:49.410Z,27.96
2023-08-20T10:09:16.592Z,27.57
2023-08-20T10:11:43.201Z,27.01
2023-08-20T10:14:09.928Z,27.20
2023-08-20T10:16:36.748Z,26.98
2023-08-20T10:19:06.638Z,26.90
2023-08-20T10:21:33.758Z,26.97
2023-08-20T10:24:09.977Z,26.95
2023-08-20T10:26:37.182Z,26.61
2023-08-20T10:29:43.289Z,26.43
2023-08-20T10:32:11.718Z,26.46
2023-08-20T10:34:41.159Z,26.51
2023-08-20T10:37:14.365Z,26.92
2023-08-20T10:39:43.481Z,26.75
2023-08-20T10:42:16.606Z,26.69
2023-08-20T10:45:06.187Z,26.58
2023-08-20T10:47:59.035Z,26.75
2023-08-20T10:50:30.676Z,26.69
2023-08-20T10:52:57.265Z,26.81
2023-08-20T10:55:24.964Z,26.74
2023-08-20T10:58:00.488Z,26.99
2023-08-20T11:00:27.452Z,26.83
2023-08-20T11:02:54.218Z,27.17
2023-08-20T11:05:22.608Z,27.04
2023-08-20T11:07:50.043Z,26.82
2023-08-20T11:10:17.538Z,26.84
2023-08-20T11:12:47.822Z,26.98
2023-08-20T11:15:14.508Z,27.05
2023-08-20T11:17:48.403Z,26.80
2023-08-20T11:20:17.840Z,26.93
2023-08-20T11:22:44.484Z,27.33
2023-08-20T11:25:14.352Z,27.21
2023-08-20T11:27:44.794Z,26.92
2023-08-20T11:30:15.410Z,26.42
2023-08-20T11:32:44.021Z,26.91
2023-08-20T11:35:11.060Z,26.90
2023-08-20T11:37:37.832Z,27.38
2023-08-20T11:40:08.821Z,27.09
2023-08-20T11:42:35.524Z,26.89
2023-08-20T11:45:02.107Z,26.73
2023-08-20T11:47:28.961Z,26.17
2023-08-20T11:50:09.174Z,26.08
2023-08-20T11:52:37.450Z,26.06
2023-08-20T11:55:04.783Z,26.07
2023-08-20T11:57:31.473Z,25.89
2023-08-20T12:00:05.611Z,25.94
2023-08-20T12:02:39.989Z,26.04
2023-08-20T12:05:07.615Z,25.82
2023-08-20T12:07:34.692Z,25.79
2023-08-20T12:10:22.530Z,26.04
2023-08-20T12:12:49.928Z,26.30
2023-08-20T12:15:16.559Z,26.28
2023-08-20T12:17:43.166Z,26.71
2023-08-20T12:20:13.797Z,26.65
2023-08-20T12:22:40.690Z,26.24
2023-08-20T12:25:07.700Z,26.21
2023-08-20T12:27:35.704Z,26.61
2023-08-20T12:30:02.365Z,26.83
2023-08-20T12:32:29.060Z,26.43
2023-08-20T12:34:55.696Z,26.22
2023-08-20T12:37:22.246Z,26.80
2023-08-20T12:39:50.073Z,27.23
2023-08-20T12:42:16.652Z,26.98
2023-08-20T12:44:43.221Z,26.59
2023-08-20T12:47:09.984Z,26.25
2023-08-20T12:49:36.577Z,26.28
2023-08-20T12:52:04.174Z,26.21
2023-08-20T12:54:30.777Z,26.41
2023-08-20T12:56:57.580Z,26.28
2023-08-20T12:59:26.929Z,26.31
2023-08-20T13:01:53.925Z,26.40
2023-08-20T13:04:20.790Z,26.83
2023-08-20T13:06:48.449Z,26.40
2023-08-20T13:09:16.483Z,26.83
2023-08-20T13:11:45.669Z,27.21
2023-08-20T13:14:12.581Z,27.49
2023-08-20T13:16:39.462Z,26.87
2023-08-20T13:19:06.641Z,26.60
2023-08-20T13:21:33.158Z,26.21
2023-08-20T13:23:59.661Z,26.79
2023-08-20T13:26:26.233Z,27.04
2023-08-20T13:28:52.824Z,27.18
2023-08-20T13:31:19.533Z,26.73
2023-08-20T13:33:46.253Z,26.32
2023-08-20T13:36:12.805Z,26.14
2023-08-20T13:38:39.374Z,26.40
2023-08-20T13:41:06.024Z,26.82
2023-08-20T13:43:32.627Z,26.91
2023-08-20T13:45:59.188Z,27.00
2023-08-20T13:48:25.772Z,26.75
2023-08-20T13:50:52.405Z,26.44
2023-08-20T13:53:19.062Z,26.17
2023-08-20T13:55:45.880Z,25.87
2023-08-20T13:58:12.421Z,25.87
2023-08-20T14:00:39.598Z,25.95
2023-08-20T14:03:06.187Z,26.09
2023-08-20T14:05:33.246Z,26.04
2023-08-20T14:07:59.805Z,25.87
2023-08-20T14:10:26.359Z,26.13
2023-08-20T14:12:53.580Z,26.13
2023-08-20T14:15:20.063Z,25.96
2023-08-20T14:17:46.605Z,26.05
2023-08-20T14:20:14.772Z,26.44
2023-08-20T14:22:41.249Z,26.60
2023-08-20T14:25:08.291Z,26.86
2023-08-20T14:27:34.997Z,26.79
2023-08-20T14:30:01.506Z,27.12
2023-08-20T14:32:28.022Z,27.06
2023-08-20T14:34:54.566Z,26.89
2023-08-20T14:37:21.589Z,26.98
2023-08-20T14:39:48.232Z,26.93
2023-08-20T14:42:14.747Z,26.83
2023-08-20T14:44:41.301Z,26.87
2023-08-20T14:47:07.973Z,26.64
2023-08-20T14:49:34.594Z,26.76
2023-08-20T14:52:13.766Z,26.80
2023-08-20T14:54:44.300Z,26.83
2023-08-20T14:57:10.868Z,26.81
2023-08-20T14:59:37.344Z,26.80
2023-08-20T15:02:03.924Z,26.88
2023-08-20T15:04:30.508Z,26.84
2023-08-20T15:06:57.019Z,26.93
2023-08-20T15:09:23.601Z,26.92
2023-08-20T15:11:50.170Z,26.94
2023-08-20T15:14:16.776Z,26.93
2023-08-20T15:16:43.647Z,27.11
2023-08-20T15:19:10.279Z,27.29
2023-08-20T15:21:36.859Z,26.66
2023-08-20T15:24:05.089Z,26.30
2023-08-20T15:26:33.307Z,26.61
2023-08-20T15:29:01.511Z,26.87
2023-08-20T15:31:29.835Z,26.77
2023-08-20T15:33:56.564Z,26.71
2023-08-20T15:36:23.161Z,26.76
2023-08-20T15:38:49.687Z,26.95
2023-08-20T15:41:16.217Z,27.03
2023-08-20T15:43:42.860Z,27.13
2023-08-20T15:46:09.437Z,27.27
2023-08-20T15:48:36.076Z,27.26
2023-08-20T15:51:02.746Z,27.06
2023-08-20T15:53:29.267Z,27.19
2023-08-20T15:55:55.801Z,26.99
2023-08-20T15:58:22.580Z,26.90
2023-08-20T16:00:49.211Z,26.63
2023-08-20T16:03:15.831Z,26.55
2023-08-20T16:05:42.998Z,26.23
2023-08-20T16:08:09.965Z,26.06
2023-08-20T16:10:36.611Z,26.08
2023-08-20T16:13:03.931Z,25.88
2023-08-20T16:15:30.604Z,25.70
2023-08-20T16:17:57.390Z,25.38
2023-08-20T16:20:24.562Z,25.17
2023-08-20T16:22:51.121Z,25.06
2023-08-20T16:25:17.650Z,25.01
2023-08-20T16:27:44.385Z,25.02
2023-08-20T16:30:12.616Z,25.07
2023-08-20T16:32:39.528Z,24.94
2023-08-20T16:35:06.871Z,24.82
2023-08-20T16:37:33.338Z,24.78
2023-08-20T16:39:59.880Z,24.61
2023-08-20T16:42:26.531Z,24.58
2023-08-20T16:44:53.146Z,24.51
2023-08-20T16:47:19.697Z,24.59
2023-08-20T16:49:46.449Z,24.68
2023-08-20T16:52:12.942Z,24.80
2023-08-20T16:54:40.347Z,24.86
2023-08-20T16:57:06.909Z,24.96
2023-08-20T16:59:33.413Z,25.06
2023-08-20T17:01:59.936Z,25.24
2023-08-20T17:04:27.352Z,25.21
2023-08-20T17:06:54.208Z,25.12
2023-08-20T17:09:20.871Z,25.01
2023-08-20T17:11:47.436Z,25.04
2023-08-20T17:14:14.436Z,24.89
2023-08-20T17:16:41.764Z,25.16
2023-08-20T17:19:08.509Z,25.24
2023-08-20T17:21:35.054Z,24.95
2023-08-20T17:24:02.662Z,24.78
2023-08-20T17:26:29.467Z,24.59
2023-08-20T17:28:56.005Z,24.39
2023-08-20T17:31:22.685Z,24.09
2023-08-20T17:33:49.239Z,24.10
2023-08-20T17:36:15.841Z,24.25
2023-08-20T17:38:42.512Z,24.35
2023-08-20T17:41:08.996Z,24.44
2023-08-20T17:43:35.501Z,24.63
2023-08-20T17:46:02.096Z,24.95
2023-08-20T17:48:29.412Z,25.01
2023-08-20T17:50:56.297Z,25.28
2023-08-20T17:53:29.194Z,25.56
2023-08-20T17:55:58.003Z,25.73
2023-08-20T17:58:26.669Z,25.47
2023-08-20T18:00:53.364Z,24.83
2023-08-20T18:03:20.594Z,24.40
2023-08-20T18:05:47.340Z,24.10
2023-08-20T18:08:14.381Z,23.96
2023-08-20T18:10:41.013Z,23.80
2023-08-20T18:13:09.132Z,23.61
2023-08-20T18:15:36.173Z,23.48
2023-08-20T18:18:03.069Z,23.41
2023-08-20T18:20:29.773Z,23.32
2023-08-20T18:22:56.324Z,23.26
2023-08-20T18:25:22.893Z,23.28
2023-08-20T18:27:49.520Z,23.27
2023-08-20T18:30:16.307Z,23.20
2023-08-20T18:32:43.052Z,23.09
2023-08-20T18:35:10.333Z,22.96
2023-08-20T18:37:36.877Z,22.84
2023-08-20T18:40:05.165Z,22.71
2023-08-20T18:42:34.210Z,22.61
2023-08-20T18:45:01.888Z,22.51
2023-08-20T18:47:28.652Z,22.42
2023-08-20T18:49:55.299Z,22.23
2023-08-20T18:52:21.821Z,22.10
2023-08-20T18:54:48.479Z,22.00
2023-08-20T18:57:15.040Z,21.84
2023-08-20T18:59:41.776Z,21.81
2023-08-20T19:02:08.366Z,21.78
2023-08-20T19:04:34.932Z,21.75
2023-08-20T19:07:02.235Z,21.73
2023-08-20T19:09:29.762Z,21.74
2023-08-20T19:11:59.973Z,21.63
2023-08-20T19:14:26.607Z,21.63
2023-08-20T19:16:53.170Z,21.60
2023-08-20T19:19:19.743Z,21.60
2023-08-20T19:21:46.289Z,21.58
2023-08-20T19:24:12.941Z,21.53
2023-08-20T19:26:39.582Z,21.47
2023-08-20T19:29:06.095Z,21.42
2023-08-20T19:31:32.821Z,21.36
2023-08-20T19:33:59.349Z,21.30
2023-08-20T19:36:25.938Z,21.27
2023-08-20T19:38:52.478Z,21.24
2023-08-20T19:41:19.039Z,21.25
2023-08-20T19:43:45.745Z,21.24
2023-08-20T19:46:14.893Z,21.24
2023-08-20T19:48:41.658Z,21.18
2023-08-20T19:51:08.280Z,21.13
2023-08-20T19:53:34.847Z,21.06
2023-08-20T19:56:01.429Z,21.00
2023-08-20T19:58:28.104Z,20.95
2023-08-20T20:00:54.753Z,20.93
2023-08-20T20:03:21.392Z,20.89
2023-08-20T20:05:47.916Z,20.87
2023-08-20T20:08:14.469Z,20.83
2023-08-20T20:10:41.348Z,20.78
2023-08-20T20:13:07.867Z,20.73
2023-08-20T20:15:34.483Z,20.64
2023-08-20T20:18:01.096Z,20.58
2023-08-20T20:20:28.274Z,20.53
2023-08-20T20:22:54.923Z,20.45
2023-08-20T20:25:22.983Z,20.40
2023-08-20T20:27:51.302Z,20.32
2023-08-20T20:30:17.827Z,20.22
2023-08-20T20:32:45.745Z,20.14
2023-08-20T20:35:12.495Z,20.04
2023-08-20T20:37:39.772Z,19.98
2023-08-20T20:40:09.955Z,19.91
2023-08-20T20:42:37.825Z,19.82
2023-08-20T20:45:06.849Z,19.76
2023-08-20T20:47:33.680Z,19.69
2023-08-20T20:50:00.485Z,19.59
2023-08-20T20:52:27.210Z,19.53
2023-08-20T20:54:53.784Z,19.48
2023-08-20T20:57:21.126Z,19.42
2023-08-20T20:59:47.703Z,19.34
2023-08-20T21:02:14.268Z,19.27
2023-08-20T21:04:40.939Z,19.22
2023-08-20T21:07:07.638Z,19.13
2023-08-20T21:09:34.254Z,19.08
2023-08-20T21:12:00.930Z,19.00
2023-08-20T21:14:27.494Z,18.96
2023-08-20T21:16:54.121Z,18.92
2023-08-20T21:19:20.640Z,18.89
2023-08-20T21:21:47.148Z,18.85
2023-08-20T21:24:13.690Z,18.82
2023-08-20T21:26:40.294Z,18.79
2023-08-20T21:29:07.908Z,18.76
2023-08-20T21:31:34.391Z,18.71
2023-08-20T21:34:00.996Z,18.66
2023-08-20T21:36:27.502Z,18.61
2023-08-20T21:38:54.039Z,18.59
2023-08-20T21:41:20.630Z,18.51
2023-08-20T21:43:48.995Z,18.43
2023-08-20T21:46:16.337Z,18.42
2023-08-20T21:48:43.292Z,18.39
2023-08-20T21:51:11.064Z,18.34
2023-08-20T21:53:38.075Z,18.26
2023-08-20T21:56:04.771Z,18.22
2023-08-20T21:58:31.341Z,18.15
2023-08-20T22:00:59.748Z,18.11
2023-08-20T22:03:26.434Z,18.03
2023-08-20T22:05:53.023Z,18.01
2023-08-20T22:08:19.574Z,17.96
2023-08-20T22:10:46.269Z,17.92
2023-08-20T22:13:15.133Z,17.83
2023-08-20T22:15:42.152Z,17.80
2023-08-20T22:18:08.731Z,17.81
2023-08-20T22:20:35.299Z,17.79
2023-08-20T22:23:01.827Z,17.74
2023-08-20T22:25:28.391Z,17.72
2023-08-20T22:27:55.565Z,17.69
2023-08-20T22:30:23.481Z,17.64
2023-08-20T22:32:50.224Z,17.63
2023-08-20T22:35:16.897Z,17.60
2023-08-20T22:38:01.493Z,17.62
2023-08-20T22:40:27.976Z,17.60
2023-08-20T22:42:54.533Z,17.59
2023-08-20T22:45:21.104Z,17.54
2023-08-20T22:47:47.975Z,17.44
2023-08-20T22:50:14.578Z,17.41
2023-08-20T22:52:41.120Z,17.41
2023-08-20T22:55:11.336Z,17.44
2023-08-20T22:57:37.899Z,17.41
2023-08-20T23:00:08.797Z,17.36
2023-08-20T23:02:36.675Z,17.27
2023-08-20T23:05:03.831Z,17.21
2023-08-20T23:07:30.311Z,17.17
2023-08-20T23:09:57.436Z,17.15
2023-08-20T23:12:24.611Z,17.10
2023-08-20T23:14:52.787Z,17.09
2023-08-20T23:17:20.290Z,17.09
2023-08-20T23:19:50.129Z,17.04
2023-08-20T23:22:18.534Z,17.05
2023-08-20T23:24:45.441Z,17.03
2023-08-20T23:27:12.146Z,17.02
2023-08-20T23:29:38.709Z,16.98
2023-08-20T23:32:05.733Z,16.96
2023-08-20T23:34:32.570Z,16.94
2023-08-20T23:36:59.242Z,16.94
2023-08-20T23:39:25.862Z,16.91
2023-08-20T23:41:52.390Z,16.89
2023-08-20T23:44:19.076Z,16.89
2023-08-20T23:46:48.550Z,16.87
2023-08-20T23:49:15.654Z,16.92
2023-08-20T23:51:42.255Z,16.95
2023-08-20T23:54:09.676Z,16.99
2023-08-20T23:56:36.485Z,17.01
2023-08-20T23:59:03.153Z,16.97
